PWSweather.com
Personal Weather Stations
Station Observations
BLACKWELL
Blackwell, AlfretonGB DE55

BlackwellAlfretonGB DE55

Lat: 53.12076, Lon: -1.354978

Elevation: 410

Station Type: Vantage Pro

Latest ConditionsUpdated 10:17:29 PM GMT Friday, Aug 1, 2014
Currently Today's Max Today's Min Today's Average
Temperature 59.7°F15.4°C 71.2°F21.8°C 55.8°F13.2°C 61.7°F16.5°C
Dew Point 58.6°F14.8°C 63.5°F17.5°C 54.3°F12.4°C 58.9°F14.9°C
Winds Calm Calm 1.0 mph SSW1.6 kmh SSW - 0.1 mph 0.2 kmh
Wind Gusts -- 5.0 mph8.0 kmh - -
Humidity 96% 97% 70% 91%
Pressure 29.68 in1005.1 mb 29.80 in1009.1 mb 29.67 in1004.7 mb -
Precipitation - 0.29 in7.4 mm - -
Hour Temp Dew Point Humidity Winds Wind Gusts Pressure Precip Precip Rate Daily Precip Total
10:17 PM 59.7°F15.4°C 58.6°F14.8°C 96% Calm Calm -- 29.68 in1005.1 mb 0.00 in0.0 mm 0.00 in/hr0.0 mm/hr 0.29 in7.4 mm
09:17 PM 59.7°F15.4°C 58.6°F14.8°C 96% Calm Calm -- 29.68 in1005.1 mb 0.00 in0.0 mm 0.00 in/hr0.0 mm/hr 0.29 in7.4 mm
08:17 PM 60.1°F15.6°C 58.6°F14.8°C 95% Calm Calm -- 29.68 in1005.1 mb 0.01 in0.3 mm 0.00 in/hr0.0 mm/hr 0.29 in7.4 mm
07:17 PM 60.6°F15.9°C 58.8°F14.9°C 94% Calm Calm 1.0 mph1.6 kmh 29.68 in1005.1 mb 0.02 in0.5 mm 0.00 in/hr0.0 mm/hr 0.28 in7.1 mm
06:17 PM 62.1°F16.7°C 60.1°F15.6°C 93% Calm Calm 3.0 mph4.8 kmh 29.67 in1004.7 mb 0.05 in1.3 mm 0.00 in/hr0.0 mm/hr 0.26 in6.6 mm
05:17 PM 64.0°F17.8°C 62.1°F16.7°C 93% Calm Calm -- 29.67 in1004.7 mb 0.00 in0.0 mm 0.00 in/hr0.0 mm/hr 0.21 in5.3 mm
04:17 PM 63.0°F17.2°C 61.0°F16.1°C 93% Calm Calm -- 29.68 in1005.1 mb 0.03 in0.8 mm 0.00 in/hr0.0 mm/hr 0.21 in5.3 mm
03:17 PM 64.2°F17.9°C 60.8°F16.0°C 89% Calm Calm 2.0 mph3.2 kmh 29.68 in1005.1 mb 0.17 in4.3 mm 0.00 in/hr0.0 mm/hr 0.18 in4.6 mm
02:17 PM 66.0°F18.9°C 61.0°F16.1°C 84% Calm Calm 1.0 mph1.6 kmh 29.68 in1005.1 mb 0.00 in0.0 mm 0.00 in/hr0.0 mm/hr 0.02 in0.5 mm
01:17 PM 71.2°F21.8°C 61.0°F16.1°C 70% 1.0 mph SW1.6 kmh SW 4.0 mph6.4 kmh 29.68 in1005.1 mb 0.01 in0.3 mm 0.00 in/hr0.0 mm/hr 0.02 in0.5 mm
12:17 PM 68.5°F20.3°C 63.5°F17.5°C 84% 1.0 mph SSW1.6 kmh SSW 4.0 mph6.4 kmh 29.70 in1005.8 mb 0.01 in0.3 mm 0.00 in/hr0.0 mm/hr 0.01 in0.3 mm
11:17 AM 65.8°F18.8°C 60.8°F16.0°C 84% Calm Calm 3.0 mph4.8 kmh 29.71 in1006.1 mb 0.00 in0.0 mm 0.00 in/hr0.0 mm/hr 0.00 in0.0 mm
10:17 AM 66.6°F19.2°C 60.8°F16.0°C 82% Calm Calm 4.0 mph6.4 kmh 29.73 in1006.8 mb 0.00 in0.0 mm 0.00 in/hr0.0 mm/hr 0.00 in0.0 mm
09:17 AM 65.1°F18.4°C 60.1°F15.6°C 84% Calm Calm 4.0 mph6.4 kmh 29.74 in1007.1 mb 0.00 in0.0 mm 0.00 in/hr0.0 mm/hr 0.00 in0.0 mm
08:17 AM 63.9°F17.7°C 59.9°F15.5°C 87% Calm Calm 2.0 mph3.2 kmh 29.75 in1007.5 mb 0.00 in0.0 mm 0.00 in/hr0.0 mm/hr 0.00 in0.0 mm
07:17 AM 60.8°F16.0°C 59.4°F15.2°C 95% Calm Calm 5.0 mph8.0 kmh 29.75 in1007.5 mb 0.00 in0.0 mm 0.00 in/hr0.0 mm/hr 0.00 in0.0 mm
06:17 AM 57.9°F14.4°C 57.2°F14.0°C 97% Calm Calm 1.0 mph1.6 kmh 29.75 in1007.5 mb 0.00 in0.0 mm 0.00 in/hr0.0 mm/hr 0.00 in0.0 mm
05:17 AM 55.8°F13.2°C 54.7°F12.6°C 96% Calm Calm -- 29.76 in1007.8 mb 0.00 in0.0 mm 0.00 in/hr0.0 mm/hr 0.00 in0.0 mm
04:17 AM 56.7°F13.7°C 55.2°F12.9°C 95% Calm Calm -- 29.76 in1007.8 mb 0.00 in0.0 mm 0.00 in/hr0.0 mm/hr 0.00 in0.0 mm
03:17 AM 57.0°F13.9°C 55.8°F13.2°C 95% Calm Calm 1.0 mph1.6 kmh 29.77 in1008.1 mb 0.00 in0.0 mm 0.00 in/hr0.0 mm/hr 0.00 in0.0 mm
02:17 AM 57.6°F14.2°C 56.3°F13.5°C 96% Calm Calm -- 29.79 in1008.8 mb 0.00 in0.0 mm 0.00 in/hr0.0 mm/hr 0.00 in0.0 mm
01:17 AM 56.1°F13.4°C 54.3°F12.4°C 94% Calm Calm -- 29.80 in1009.1 mb 0.00 in0.0 mm 0.00 in/hr0.0 mm/hr 0.00 in0.0 mm
12:17 AM 56.7°F13.7°C 55.0°F12.8°C 94% Calm Calm -- 29.80 in1009.1 mb 0.00 in0.0 mm 0.00 in/hr0.0 mm/hr 0.00 in0.0 mm